Terminal Aerodrome Forecast
Issued by NWS Cleveland, OH

Home | Current Version | Previous Version | Text Only | Print | Product List | Glossary On
Versions: 1 2 3 4 5 6 7 8 9 10 11 12 13 14 15 16 17 18 19 20 21
000
FTUS41 KCLE 221700
TAFERI
TAF
KERI 221731Z 2218/2318 02012KT P6SM OVC018
     FM222000 02012KT P6SM OVC025
     FM222200 02010KT P6SM BKN030
     FM230000 02010KT P6SM BKN035
     FM230200 36007KT P6SM BKN040
     FM230600 34005KT P6SM SCT040=

USA.gov is the U.S. government's official web portal to all federal, state and local government web resources and services.